createdAt,value
2023-01-07T00:00:50.166Z,36.38
2023-01-07T00:02:53.840Z,30.38
2023-01-07T00:04:57.466Z,26.35
2023-01-07T00:07:00.693Z,29.98
2023-01-07T00:09:07.188Z,31.83
2023-01-07T00:11:16.389Z,22.98
2023-01-07T00:13:19.745Z,25.02
2023-01-07T00:15:23.130Z,27.90
2023-01-07T00:17:26.369Z,22.65
2023-01-07T00:19:29.607Z,23.63
2023-01-07T00:21:33.205Z,26.13
2023-01-07T00:23:37.926Z,13.50
2023-01-07T00:25:42.676Z,12.18
2023-01-07T00:27:46.153Z,12.10
2023-01-07T00:29:49.555Z,12.38
2023-01-07T00:31:53.853Z,14.27
2023-01-07T00:34:09.077Z,12.50
2023-01-07T00:36:12.399Z,16.45
2023-01-07T00:38:15.809Z,13.30
2023-01-07T00:40:19.405Z,13.07
2023-01-07T00:42:41.783Z,7.10
2023-01-07T00:44:45.262Z,10.45
2023-01-07T00:46:48.603Z,11.85
2023-01-07T00:48:51.988Z,15.63
2023-01-07T00:50:55.718Z,10.68
2023-01-07T00:52:59.622Z,14.65
2023-01-07T00:55:02.959Z,9.30
2023-01-07T00:57:06.208Z,6.80
2023-01-07T00:59:10.813Z,8.77
2023-01-07T01:01:14.684Z,8.70
2023-01-07T01:03:18.219Z,6.88
2023-01-07T01:05:22.350Z,14.07
2023-01-07T01:07:25.724Z,16.88
2023-01-07T01:09:28.996Z,23.88
2023-01-07T01:11:32.228Z,14.05
2023-01-07T01:13:35.789Z,10.98
2023-01-07T01:15:43.372Z,6.63
2023-01-07T01:17:46.764Z,13.95
2023-01-07T01:19:50.167Z,9.32
2023-01-07T01:21:53.464Z,14.10
2023-01-07T01:23:57.654Z,7.75
2023-01-07T01:26:06.176Z,5.68
2023-01-07T01:28:09.523Z,8.77
2023-01-07T01:30:13.349Z,7.93
2023-01-07T01:32:18.056Z,6.57
2023-01-07T01:34:21.387Z,10.18
2023-01-07T01:36:25.985Z,6.30
2023-01-07T01:38:30.926Z,5.78
2023-01-07T01:40:34.277Z,4.95
2023-01-07T01:42:37.596Z,4.10
2023-01-07T01:44:51.254Z,6.40
2023-01-07T01:46:59.128Z,5.00
2023-01-07T01:49:08.778Z,4.85
2023-01-07T01:51:14.851Z,4.68
2023-01-07T01:53:21.674Z,4.63
2023-01-07T01:55:31.960Z,2.22
2023-01-07T01:57:38.236Z,2.70
2023-01-07T01:59:44.430Z,2.60
2023-01-07T02:01:48.205Z,4.32
2023-01-07T02:03:53.125Z,2.25
2023-01-07T02:05:58.167Z,2.00
2023-01-07T02:08:01.599Z,2.45
2023-01-07T02:10:13.143Z,2.05
2023-01-07T02:12:27.830Z,2.22
2023-01-07T02:14:58.941Z,2.80
2023-01-07T02:17:11.227Z,3.33
2023-01-07T02:19:54.417Z,2.95
2023-01-07T02:22:07.087Z,1.35
2023-01-07T02:24:46.053Z,2.65
2023-01-07T02:27:28.304Z,4.90
2023-01-07T02:30:04.581Z,3.58
2023-01-07T02:32:47.480Z,2.13
2023-01-07T02:34:58.813Z,2.45
2023-01-07T02:37:11.547Z,1.90
2023-01-07T02:39:32.224Z,2.00
2023-01-07T02:41:51.852Z,2.55
2023-01-07T02:43:59.128Z,6.45
2023-01-07T02:46:10.513Z,1.67
2023-01-07T02:48:18.765Z,2.05
2023-01-07T02:50:22.458Z,1.40
2023-01-07T02:52:27.858Z,2.85
2023-01-07T02:54:31.803Z,2.17
2023-01-07T02:56:48.673Z,2.10
2023-01-07T02:59:18.837Z,2.08
2023-01-07T03:01:46.541Z,2.80
2023-01-07T03:04:09.402Z,5.70
2023-01-07T03:06:27.172Z,2.67
2023-01-07T03:09:02.370Z,2.08
2023-01-07T03:11:08.535Z,2.72
2023-01-07T03:13:17.720Z,2.50
2023-01-07T03:15:28.086Z,1.65
2023-01-07T03:17:35.879Z,3.60
2023-01-07T03:19:46.568Z,3.35
2023-01-07T03:21:50.374Z,3.60
2023-01-07T03:23:57.237Z,4.60
2023-01-07T03:26:04.490Z,8.25
2023-01-07T03:28:10.745Z,4.43
2023-01-07T03:30:16.932Z,2.38
2023-01-07T03:32:24.636Z,3.15
2023-01-07T03:34:30.038Z,3.80
2023-01-07T03:36:40.586Z,5.60
2023-01-07T03:38:45.816Z,2.65
2023-01-07T03:40:49.278Z,2.30
2023-01-07T03:42:51.523Z,2.72
2023-01-07T03:44:58.656Z,2.92
2023-01-07T03:47:01.981Z,1.98
2023-01-07T03:49:05.457Z,2.67
2023-01-07T03:51:09.084Z,2.30
2023-01-07T03:53:13.713Z,5.25
2023-01-07T03:55:17.406Z,3.35
2023-01-07T03:57:20.843Z,2.45
2023-01-07T03:59:24.496Z,3.05
2023-01-07T04:01:28.908Z,2.72
2023-01-07T04:03:32.660Z,2.83
2023-01-07T04:05:35.919Z,6.40
2023-01-07T04:07:39.391Z,3.45
2023-01-07T04:09:44.319Z,3.38
2023-01-07T04:11:47.663Z,5.10
2023-01-07T04:13:50.870Z,3.47
2023-01-07T04:15:54.337Z,3.53
2023-01-07T04:17:57.603Z,2.85
2023-01-07T04:20:00.902Z,2.72
2023-01-07T04:22:04.057Z,5.53
2023-01-07T04:24:08.217Z,3.15
2023-01-07T04:26:12.954Z,4.70
2023-01-07T04:28:16.708Z,2.85
2023-01-07T04:30:20.016Z,2.55
2023-01-07T04:32:23.431Z,2.72
2023-01-07T04:34:26.924Z,2.95
2023-01-07T04:36:30.482Z,2.28
2023-01-07T04:38:33.730Z,3.08
2023-01-07T04:40:36.981Z,2.72
2023-01-07T04:42:41.641Z,5.70
2023-01-07T04:44:44.993Z,2.35
2023-01-07T04:46:48.221Z,2.63
2023-01-07T04:48:51.508Z,6.90
2023-01-07T04:50:54.708Z,3.42
2023-01-07T04:52:57.975Z,2.85
2023-01-07T04:55:01.460Z,3.08
2023-01-07T04:57:04.830Z,3.38
2023-01-07T04:59:09.376Z,3.30
2023-01-07T05:01:13.048Z,4.40
2023-01-07T05:03:16.477Z,2.90
2023-01-07T05:05:19.790Z,3.90
2023-01-07T05:07:23.123Z,5.53
2023-01-07T05:09:26.538Z,5.90
2023-01-07T05:11:30.121Z,4.97
2023-01-07T05:13:35.345Z,4.95
2023-01-07T05:15:40.001Z,6.35
2023-01-07T05:17:43.446Z,6.10
2023-01-07T05:19:46.609Z,3.22
2023-01-07T05:21:49.857Z,3.30
2023-01-07T05:23:53.441Z,6.63
2023-01-07T05:25:56.635Z,4.03
2023-01-07T05:27:59.891Z,4.10
2023-01-07T05:30:03.213Z,3.58
2023-01-07T05:32:07.917Z,4.05
2023-01-07T05:34:11.295Z,3.83
2023-01-07T05:36:16.040Z,8.38
2023-01-07T05:38:19.239Z,5.10
2023-01-07T05:40:22.513Z,6.05
2023-01-07T05:42:25.945Z,7.95
2023-01-07T05:44:29.193Z,6.70
2023-01-07T05:46:32.552Z,5.13
2023-01-07T05:48:37.144Z,5.43
2023-01-07T05:50:40.415Z,4.75
2023-01-07T05:52:43.846Z,5.88
2023-01-07T05:54:47.088Z,4.00
2023-01-07T05:56:50.324Z,4.80
2023-01-07T05:58:53.756Z,4.05
2023-01-07T06:00:57.287Z,5.15
2023-01-07T06:03:00.579Z,8.70
2023-01-07T06:05:05.950Z,4.13
2023-01-07T06:07:09.166Z,5.38
2023-01-07T06:09:12.595Z,6.63
2023-01-07T06:11:16.465Z,4.45
2023-01-07T06:13:19.751Z,5.07
2023-01-07T06:15:23.096Z,5.00
2023-01-07T06:17:26.640Z,5.25
2023-01-07T06:19:29.825Z,4.00
2023-01-07T06:21:34.774Z,5.82
2023-01-07T06:23:38.249Z,4.93
2023-01-07T06:25:41.462Z,3.45
2023-01-07T06:27:44.930Z,4.07
2023-01-07T06:29:48.123Z,4.70
2023-01-07T06:31:51.364Z,6.20
2023-01-07T06:33:54.695Z,7.63
2023-01-07T06:35:58.147Z,8.20
2023-01-07T06:38:02.736Z,7.53
2023-01-07T06:40:06.820Z,12.90
2023-01-07T06:42:09.977Z,15.90
2023-01-07T06:44:13.241Z,17.48
2023-01-07T06:46:16.757Z,16.00
2023-01-07T06:48:20.021Z,17.20
2023-01-07T06:50:23.174Z,17.80
2023-01-07T06:52:26.964Z,17.40
2023-01-07T06:54:31.638Z,11.25
2023-01-07T06:56:34.879Z,9.88
2023-01-07T06:58:38.111Z,4.88
2023-01-07T07:00:43.044Z,10.25
2023-01-07T07:02:46.373Z,6.65
2023-01-07T07:04:49.774Z,7.20
2023-01-07T07:06:53.011Z,8.30
2023-01-07T07:08:56.253Z,6.93
2023-01-07T07:11:01.102Z,6.93
2023-01-07T07:13:04.479Z,6.93
2023-01-07T07:15:09.600Z,7.28
2023-01-07T07:17:13.405Z,8.50
2023-01-07T07:19:16.824Z,7.82
2023-01-07T07:21:21.029Z,6.45
2023-01-07T07:23:24.317Z,6.05
2023-01-07T07:25:27.817Z,4.95
2023-01-07T07:27:32.478Z,4.13
2023-01-07T07:29:35.726Z,4.40
2023-01-07T07:31:39.287Z,6.03
2023-01-07T07:33:42.544Z,6.28
2023-01-07T07:35:45.985Z,6.47
2023-01-07T07:37:49.372Z,6.45
2023-01-07T07:39:52.669Z,5.80
2023-01-07T07:41:59.042Z,5.43
2023-01-07T07:44:03.942Z,3.47
2023-01-07T07:46:07.427Z,6.95
2023-01-07T07:48:12.988Z,5.90
2023-01-07T07:50:16.434Z,6.05
2023-01-07T07:52:19.759Z,3.70
2023-01-07T07:54:24.080Z,3.20
2023-01-07T07:56:27.261Z,5.32
2023-01-07T07:58:30.464Z,4.70
2023-01-07T08:00:35.438Z,3.95
2023-01-07T08:02:39.741Z,4.75
2023-01-07T08:04:43.148Z,3.17
2023-01-07T08:06:46.399Z,2.67
2023-01-07T08:08:49.584Z,3.00
2023-01-07T08:10:55.526Z,3.42
2023-01-07T08:12:58.737Z,4.57
2023-01-07T08:15:02.057Z,3.35
2023-01-07T08:17:06.776Z,5.35
2023-01-07T08:19:09.970Z,5.20
2023-01-07T08:21:13.221Z,3.50
2023-01-07T08:23:16.502Z,4.65
2023-01-07T08:25:20.584Z,4.45
2023-01-07T08:27:24.002Z,3.80
2023-01-07T08:29:28.292Z,3.33
2023-01-07T08:31:31.625Z,4.35
2023-01-07T08:33:39.781Z,4.03
2023-01-07T08:35:43.069Z,2.88
2023-01-07T08:37:46.487Z,3.67
2023-01-07T08:39:49.943Z,3.00
2023-01-07T08:41:53.175Z,4.07
2023-01-07T08:43:56.653Z,3.77
2023-01-07T08:46:00.036Z,5.87
2023-01-07T08:48:03.439Z,5.43
2023-01-07T08:50:09.078Z,4.60
2023-01-07T08:52:12.286Z,5.33
2023-01-07T08:54:15.673Z,5.90
2023-01-07T08:56:18.868Z,8.80
2023-01-07T08:58:22.077Z,5.00
2023-01-07T09:00:26.022Z,5.40
2023-01-07T09:02:29.288Z,4.03
2023-01-07T09:04:32.655Z,3.77
2023-01-07T09:06:37.365Z,4.83
2023-01-07T09:08:40.610Z,3.97
2023-01-07T09:10:46.254Z,4.47
2023-01-07T09:12:49.648Z,3.70
2023-01-07T09:14:53.913Z,4.40
2023-01-07T09:16:57.397Z,4.07
2023-01-07T09:19:00.652Z,4.77
2023-01-07T09:21:04.081Z,4.90
2023-01-07T09:23:09.012Z,5.70
2023-01-07T09:25:12.265Z,3.20
2023-01-07T09:27:19.390Z,2.67
2023-01-07T09:29:22.684Z,3.07
2023-01-07T09:31:26.053Z,5.10
2023-01-07T09:33:29.616Z,11.53
2023-01-07T09:35:32.912Z,2.97
2023-01-07T09:37:36.313Z,3.67
2023-01-07T09:39:41.329Z,3.00
2023-01-07T09:41:52.143Z,3.10
2023-01-07T09:44:01.959Z,2.47
2023-01-07T09:46:10.133Z,3.33
2023-01-07T09:48:22.232Z,2.30
2023-01-07T09:50:34.232Z,3.50
2023-01-07T09:52:42.033Z,2.60
2023-01-07T09:54:49.740Z,2.60
2023-01-07T09:56:52.977Z,3.43
2023-01-07T09:58:57.679Z,3.10
2023-01-07T10:01:09.278Z,4.10
2023-01-07T10:03:23.932Z,4.93
2023-01-07T10:05:38.094Z,3.13
2023-01-07T10:07:48.022Z,4.87
2023-01-07T10:10:04.666Z,3.33
2023-01-07T10:12:16.102Z,3.83
2023-01-07T10:14:46.795Z,7.60
2023-01-07T10:16:55.725Z,5.57
2023-01-07T10:19:06.735Z,7.77
2023-01-07T10:21:19.477Z,4.83
2023-01-07T10:23:28.069Z,4.67
2023-01-07T10:25:36.756Z,5.10
2023-01-07T10:27:43.178Z,7.57
2023-01-07T10:29:51.092Z,5.13
2023-01-07T10:31:57.496Z,4.57
2023-01-07T10:34:01.079Z,3.57
2023-01-07T10:36:18.784Z,4.73
2023-01-07T10:38:22.509Z,3.90
2023-01-07T10:40:40.001Z,5.50
2023-01-07T10:42:50.692Z,3.43
2023-01-07T10:45:22.652Z,7.97
2023-01-07T10:47:39.693Z,5.00
2023-01-07T10:50:04.873Z,4.47
2023-01-07T10:52:15.800Z,4.63
2023-01-07T10:54:37.001Z,4.90
2023-01-07T10:56:53.804Z,4.50
2023-01-07T10:58:57.402Z,5.53
2023-01-07T11:01:01.205Z,4.90
2023-01-07T11:03:04.621Z,4.40
2023-01-07T11:05:08.550Z,5.53
2023-01-07T11:07:19.458Z,4.50
2023-01-07T11:09:29.576Z,6.17
2023-01-07T11:11:35.068Z,5.13
2023-01-07T11:13:42.756Z,5.60
2023-01-07T11:15:51.148Z,4.60
2023-01-07T11:17:59.962Z,4.57
2023-01-07T11:20:03.531Z,4.13
2023-01-07T11:22:33.493Z,3.60
2023-01-07T11:24:37.202Z,3.30
2023-01-07T11:26:40.404Z,2.90
2023-01-07T11:28:52.100Z,3.10
2023-01-07T11:31:00.459Z,5.93
2023-01-07T11:33:06.707Z,2.20
2023-01-07T11:35:22.720Z,2.93
2023-01-07T11:37:35.955Z,2.50
2023-01-07T11:39:39.344Z,2.60
2023-01-07T11:41:54.361Z,2.63
2023-01-07T11:44:02.819Z,2.13
2023-01-07T11:46:21.107Z,1.93
2023-01-07T11:48:30.082Z,2.60
2023-01-07T11:50:37.406Z,2.20
2023-01-07T11:52:40.732Z,1.80
2023-01-07T11:54:44.206Z,2.10
2023-01-07T11:56:47.618Z,2.50
2023-01-07T11:58:52.778Z,2.87
2023-01-07T12:01:16.872Z,3.43
2023-01-07T12:03:20.683Z,2.87
2023-01-07T12:05:26.303Z,1.80
2023-01-07T12:07:29.591Z,3.00
2023-01-07T12:09:38.433Z,2.80
2023-01-07T12:11:44.237Z,2.60
2023-01-07T12:13:53.042Z,2.23
2023-01-07T12:15:59.487Z,1.43
2023-01-07T12:18:37.254Z,2.00
2023-01-07T12:21:12.837Z,4.80
2023-01-07T12:23:30.225Z,1.87
2023-01-07T12:25:45.808Z,1.93
2023-01-07T12:27:57.736Z,1.93
2023-01-07T12:30:25.613Z,2.20
2023-01-07T12:32:38.426Z,2.20
2023-01-07T12:34:52.645Z,2.00
2023-01-07T12:37:03.031Z,1.97
2023-01-07T12:39:12.918Z,2.37
2023-01-07T12:41:20.845Z,2.60
2023-01-07T12:43:29.584Z,5.33
2023-01-07T12:45:40.248Z,3.90
2023-01-07T12:47:51.736Z,1.97
2023-01-07T12:50:00.097Z,3.30
2023-01-07T12:52:09.589Z,2.03
2023-01-07T12:54:19.005Z,1.57
2023-01-07T12:56:26.851Z,2.03
2023-01-07T12:58:46.344Z,2.00
2023-01-07T13:00:58.556Z,2.47
2023-01-07T13:03:11.973Z,2.60
2023-01-07T13:05:21.244Z,2.63
2023-01-07T13:07:29.083Z,1.77
2023-01-07T13:09:38.866Z,1.93
2023-01-07T13:12:41.624Z,2.67
2023-01-07T13:14:40.400Z,1.63
2023-01-07T13:16:44.575Z,1.90
2023-01-07T13:18:47.844Z,2.03
2023-01-07T13:21:12.767Z,2.50
2023-01-07T13:23:23.638Z,2.80
2023-01-07T13:25:39.528Z,2.97
2023-01-07T13:28:11.901Z,2.83
2023-01-07T13:30:24.200Z,3.70
2023-01-07T13:32:48.047Z,1.67
2023-01-07T13:35:10.520Z,2.40
2023-01-07T13:37:48.166Z,2.40
2023-01-07T13:40:09.421Z,2.37
2023-01-07T13:42:32.067Z,1.80
2023-01-07T13:44:54.302Z,1.90
2023-01-07T13:46:58.297Z,3.63
2023-01-07T13:49:03.280Z,2.20
2023-01-07T13:51:09.273Z,2.07
2023-01-07T13:53:46.180Z,2.57
2023-01-07T13:55:50.227Z,3.00
2023-01-07T13:57:53.535Z,2.70
2023-01-07T13:59:58.608Z,3.50
2023-01-07T14:02:25.659Z,2.13
2023-01-07T14:04:37.172Z,3.93
2023-01-07T14:06:42.652Z,3.20
2023-01-07T14:08:50.578Z,2.60
2023-01-07T14:10:55.356Z,2.93
2023-01-07T14:13:19.776Z,3.07
2023-01-07T14:15:57.556Z,2.20
2023-01-07T14:18:25.591Z,3.70
2023-01-07T14:20:39.966Z,2.60
2023-01-07T14:22:50.003Z,2.43
2023-01-07T14:25:14.989Z,2.00
2023-01-07T14:27:38.607Z,4.00
2023-01-07T14:29:46.668Z,4.93
2023-01-07T14:31:51.388Z,3.23
2023-01-07T14:33:58.328Z,12.13
2023-01-07T14:36:04.233Z,4.43
2023-01-07T14:38:42.274Z,2.60
2023-01-07T14:41:09.503Z,4.20
2023-01-07T14:44:02.741Z,4.80
2023-01-07T14:46:06.406Z,2.83
2023-01-07T14:48:31.330Z,2.53
2023-01-07T14:50:39.868Z,4.67
2023-01-07T14:53:18.730Z,2.80
2023-01-07T14:55:42.383Z,3.80
2023-01-07T14:57:59.719Z,2.80
2023-01-07T15:00:37.440Z,2.80
2023-01-07T15:03:19.575Z,3.50
2023-01-07T15:05:49.923Z,2.73
2023-01-07T15:08:20.287Z,2.37
2023-01-07T15:10:44.820Z,3.07
2023-01-07T15:13:13.713Z,19.33
2023-01-07T15:15:41.618Z,4.20
2023-01-07T15:17:45.841Z,6.83
2023-01-07T15:19:49.274Z,5.63
2023-01-07T15:22:02.004Z,4.20
2023-01-07T15:24:12.832Z,7.13
2023-01-07T15:26:20.616Z,6.07
2023-01-07T15:28:35.880Z,9.00
2023-01-07T15:30:48.739Z,3.20
2023-01-07T15:32:58.923Z,6.23
2023-01-07T15:35:10.637Z,3.20
2023-01-07T15:37:15.581Z,5.25
2023-01-07T15:39:22.191Z,6.35
2023-01-07T15:41:29.753Z,5.18
2023-01-07T15:43:35.677Z,3.17
2023-01-07T15:45:39.046Z,6.87
2023-01-07T15:47:43.489Z,5.47
2023-01-07T15:49:46.752Z,4.40
2023-01-07T15:51:53.485Z,4.68
2023-01-07T15:53:57.111Z,4.10
2023-01-07T15:56:03.640Z,5.50
2023-01-07T15:58:12.508Z,8.52
2023-01-07T16:00:19.881Z,7.00
2023-01-07T16:02:27.961Z,7.80
2023-01-07T16:04:34.186Z,5.20
2023-01-07T16:06:45.487Z,9.10
2023-01-07T16:08:48.813Z,6.65
2023-01-07T16:11:03.276Z,5.70
2023-01-07T16:13:18.294Z,4.97
2023-01-07T16:15:29.028Z,6.47
2023-01-07T16:17:32.281Z,6.68
2023-01-07T16:19:35.523Z,5.72
2023-01-07T16:21:42.578Z,8.10
2023-01-07T16:23:47.730Z,12.73
2023-01-07T16:25:56.710Z,11.25
2023-01-07T16:28:00.170Z,10.07
2023-01-07T16:30:03.834Z,9.07
2023-01-07T16:32:09.033Z,8.90
2023-01-07T16:34:35.213Z,11.80
2023-01-07T16:36:42.954Z,19.80
2023-01-07T16:38:48.235Z,24.00
2023-01-07T16:40:52.597Z,11.77
2023-01-07T16:42:55.945Z,33.92
2023-01-07T16:45:10.865Z,25.67
2023-01-07T16:47:22.352Z,22.27
2023-01-07T16:49:29.782Z,15.75
2023-01-07T16:51:38.647Z,13.18
2023-01-07T16:53:41.968Z,8.98
2023-01-07T16:55:50.744Z,10.63
2023-01-07T16:57:54.062Z,16.63
2023-01-07T17:00:00.580Z,17.35
2023-01-07T17:02:13.672Z,16.98
2023-01-07T17:04:22.134Z,14.88
2023-01-07T17:06:28.708Z,13.70
2023-01-07T17:08:32.919Z,15.73
2023-01-07T17:10:38.458Z,16.95
2023-01-07T17:12:42.581Z,18.38
2023-01-07T17:14:48.397Z,26.92
2023-01-07T17:17:01.232Z,32.67
2023-01-07T17:19:25.796Z,30.55
2023-01-07T17:21:40.829Z,28.52
2023-01-07T17:23:45.816Z,33.95
2023-01-07T17:25:51.357Z,24.38
2023-01-07T17:27:58.170Z,20.02
2023-01-07T17:30:04.077Z,17.45
2023-01-07T17:32:08.267Z,11.57
2023-01-07T17:34:12.539Z,12.65
2023-01-07T17:36:19.271Z,9.43
2023-01-07T17:38:22.713Z,14.90
2023-01-07T17:40:26.004Z,12.40
2023-01-07T17:42:51.359Z,8.57
2023-01-07T17:44:58.315Z,16.02
2023-01-07T17:47:02.792Z,17.05
2023-01-07T17:49:06.044Z,15.82
2023-01-07T17:51:11.272Z,16.77
2023-01-07T17:53:22.361Z,13.52
2023-01-07T17:55:29.129Z,17.65
2023-01-07T17:57:32.497Z,11.93
2023-01-07T17:59:36.140Z,12.45
2023-01-07T18:01:39.612Z,11.80
2023-01-07T18:03:46.185Z,8.95
2023-01-07T18:05:49.473Z,14.40
2023-01-07T18:07:53.964Z,9.23
2023-01-07T18:09:59.076Z,12.30
2023-01-07T18:12:27.947Z,15.88
2023-01-07T18:14:32.574Z,16.40
2023-01-07T18:16:36.459Z,16.98
2023-01-07T18:18:39.794Z,17.75
2023-01-07T18:20:42.990Z,19.45
2023-01-07T18:22:46.588Z,16.13
2023-01-07T18:24:50.247Z,22.58
2023-01-07T18:26:56.553Z,14.73
2023-01-07T18:29:03.315Z,17.42
2023-01-07T18:31:07.241Z,19.05
2023-01-07T18:33:12.285Z,15.55
2023-01-07T18:35:15.827Z,16.55
2023-01-07T18:37:19.091Z,21.20
2023-01-07T18:39:22.363Z,17.77
2023-01-07T18:41:27.139Z,11.05
2023-01-07T18:43:31.902Z,14.25
2023-01-07T18:45:35.178Z,16.80
2023-01-07T18:47:38.866Z,15.40
2023-01-07T18:49:42.146Z,12.93
2023-01-07T18:51:48.024Z,13.35
2023-01-07T18:53:51.359Z,14.20
2023-01-07T18:56:01.385Z,15.70
2023-01-07T18:58:04.719Z,17.27
2023-01-07T19:00:11.084Z,14.93
2023-01-07T19:02:16.890Z,14.95
2023-01-07T19:04:20.175Z,13.05
2023-01-07T19:06:23.427Z,16.02
2023-01-07T19:08:26.844Z,12.25
2023-01-07T19:10:30.406Z,15.88
2023-01-07T19:12:33.682Z,19.13
2023-01-07T19:14:37.000Z,13.30
2023-01-07T19:16:45.763Z,17.60
2023-01-07T19:18:49.082Z,10.10
2023-01-07T19:20:52.868Z,12.50
2023-01-07T19:23:00.521Z,11.75
2023-01-07T19:25:03.910Z,12.48
2023-01-07T19:27:07.585Z,13.50
2023-01-07T19:29:13.227Z,13.85
2023-01-07T19:31:17.546Z,11.45
2023-01-07T19:33:22.299Z,13.30
2023-01-07T19:35:26.862Z,15.20
2023-01-07T19:37:30.103Z,15.60
2023-01-07T19:39:33.291Z,13.43
2023-01-07T19:41:36.779Z,14.48
2023-01-07T19:43:40.134Z,12.68
2023-01-07T19:45:54.014Z,13.82
2023-01-07T19:47:57.331Z,17.63
2023-01-07T19:50:02.322Z,21.52
2023-01-07T19:52:06.017Z,13.82
2023-01-07T19:54:13.058Z,17.35
2023-01-07T19:56:20.444Z,13.80
2023-01-07T19:58:23.964Z,11.50
2023-01-07T20:00:27.194Z,13.50
2023-01-07T20:02:30.830Z,12.20
2023-01-07T20:04:34.171Z,16.35
2023-01-07T20:06:41.258Z,9.73
2023-01-07T20:08:44.805Z,14.30
2023-01-07T20:10:57.729Z,12.73
2023-01-07T20:13:01.066Z,12.02
2023-01-07T20:15:04.353Z,11.35
2023-01-07T20:17:07.781Z,11.90
2023-01-07T20:19:12.588Z,13.55
2023-01-07T20:21:17.541Z,14.70
2023-01-07T20:23:22.367Z,10.80
2023-01-07T20:25:25.589Z,12.43
2023-01-07T20:27:29.252Z,10.65
2023-01-07T20:29:32.471Z,11.18
2023-01-07T20:31:36.885Z,10.95
2023-01-07T20:33:41.023Z,12.48
2023-01-07T20:35:49.388Z,13.70
2023-01-07T20:37:52.680Z,14.05
2023-01-07T20:39:57.445Z,14.40
2023-01-07T20:42:00.790Z,15.25
2023-01-07T20:44:06.106Z,12.85
2023-01-07T20:46:10.393Z,16.58
2023-01-07T20:48:15.480Z,12.43
2023-01-07T20:50:18.964Z,11.15
2023-01-07T20:52:22.298Z,12.77
2023-01-07T20:54:25.667Z,12.88
2023-01-07T20:56:32.417Z,12.18
2023-01-07T20:58:37.235Z,11.75
2023-01-07T21:00:41.779Z,12.20
2023-01-07T21:02:45.265Z,9.43
2023-01-07T21:04:48.672Z,11.52
2023-01-07T21:06:52.258Z,12.10
2023-01-07T21:08:55.669Z,10.68
2023-01-07T21:10:59.018Z,11.82
2023-01-07T21:13:05.075Z,11.20
2023-01-07T21:15:09.926Z,9.75
2023-01-07T21:17:13.421Z,10.65
2023-01-07T21:19:18.237Z,13.50
2023-01-07T21:21:24.686Z,10.18
2023-01-07T21:23:28.295Z,11.77
2023-01-07T21:25:31.568Z,12.70
2023-01-07T21:27:34.880Z,12.90
2023-01-07T21:29:39.963Z,19.27
2023-01-07T21:31:43.914Z,14.07
2023-01-07T21:33:47.364Z,13.85
2023-01-07T21:35:50.604Z,16.05
2023-01-07T21:37:55.197Z,10.10
2023-01-07T21:39:58.721Z,12.40
2023-01-07T21:42:02.053Z,11.57
2023-01-07T21:44:05.585Z,11.70
2023-01-07T21:46:14.791Z,10.80
2023-01-07T21:48:18.301Z,14.68
2023-01-07T21:50:21.696Z,11.27
2023-01-07T21:52:24.987Z,13.65
2023-01-07T21:54:28.662Z,14.63
2023-01-07T21:56:33.020Z,13.60
2023-01-07T21:58:36.908Z,14.82
2023-01-07T22:00:43.420Z,11.68
2023-01-07T22:02:48.302Z,14.45
2023-01-07T22:04:51.557Z,12.50
2023-01-07T22:06:55.251Z,17.08
2023-01-07T22:09:00.052Z,12.63
2023-01-07T22:11:03.446Z,15.07
2023-01-07T22:13:06.634Z,13.20
2023-01-07T22:15:10.275Z,14.15
2023-01-07T22:17:15.128Z,9.02
2023-01-07T22:19:19.839Z,11.68
2023-01-07T22:21:23.073Z,12.75
2023-01-07T22:23:26.444Z,10.20
2023-01-07T22:25:29.612Z,12.23
2023-01-07T22:27:32.857Z,10.40
2023-01-07T22:29:38.110Z,12.63
2023-01-07T22:31:41.511Z,10.18
2023-01-07T22:33:44.852Z,9.38
2023-01-07T22:35:50.367Z,12.70
2023-01-07T22:37:54.267Z,11.60
2023-01-07T22:40:03.160Z,9.88
2023-01-07T22:42:11.224Z,9.63
2023-01-07T22:44:19.977Z,7.65
2023-01-07T22:46:31.365Z,10.60
2023-01-07T22:48:36.501Z,13.68
2023-01-07T22:50:40.732Z,13.27
2023-01-07T22:52:46.117Z,11.13
2023-01-07T22:54:49.567Z,9.20
2023-01-07T22:56:52.985Z,10.48
2023-01-07T22:58:56.226Z,10.65
2023-01-07T23:01:14.595Z,10.32
2023-01-07T23:03:18.092Z,8.70
2023-01-07T23:05:21.342Z,9.18
2023-01-07T23:07:24.730Z,10.20
2023-01-07T23:09:29.469Z,12.32
2023-01-07T23:11:51.989Z,12.30
2023-01-07T23:13:57.492Z,11.27
2023-01-07T23:16:02.631Z,12.60
2023-01-07T23:18:07.237Z,10.95
2023-01-07T23:20:11.417Z,10.38
2023-01-07T23:22:14.638Z,9.50
2023-01-07T23:24:18.185Z,10.48
2023-01-07T23:26:22.746Z,8.75
2023-01-07T23:28:26.283Z,9.48
2023-01-07T23:30:29.846Z,11.98
2023-01-07T23:32:33.030Z,8.13
2023-01-07T23:34:36.412Z,9.43
2023-01-07T23:36:40.258Z,13.00
2023-01-07T23:38:43.887Z,10.02
2023-01-07T23:40:48.776Z,10.35
2023-01-07T23:42:55.773Z,13.13
2023-01-07T23:44:59.843Z,11.55
2023-01-07T23:47:03.509Z,13.40
2023-01-07T23:49:06.786Z,10.82
2023-01-07T23:51:11.815Z,12.00
2023-01-07T23:53:15.072Z,14.82
2023-01-07T23:55:21.516Z,12.77
2023-01-07T23:57:25.076Z,11.88
2023-01-07T23:59:30.013Z,10.25
